sensor_id;sensor_type;location;lat;lon;timestamp;pressure;altitude;pressure_sealevel;temperature
53412;BMP280;39307;52.870;13.660;2023-05-21T00:01:23;101464.44;;;15.23
53412;BMP280;39307;52.870;13.660;2023-05-21T00:03:50;101459.59;;;15.33
53412;BMP280;39307;52.870;13.660;2023-05-21T00:06:16;101452.91;;;15.30
53412;BMP280;39307;52.870;13.660;2023-05-21T00:08:42;101459.19;;;15.30
53412;BMP280;39307;52.870;13.660;2023-05-21T00:11:08;101456.31;;;15.25
53412;BMP280;39307;52.870;13.660;2023-05-21T00:13:35;101452.06;;;15.24
53412;BMP280;39307;52.870;13.660;2023-05-21T00:16:01;101454.06;;;15.22
53412;BMP280;39307;52.870;13.660;2023-05-21T00:18:27;101435.63;;;15.28
53412;BMP280;39307;52.870;13.660;2023-05-21T00:20:53;101443.88;;;15.12
53412;BMP280;39307;52.870;13.660;2023-05-21T00:23:19;101442.69;;;15.15
53412;BMP280;39307;52.870;13.660;2023-05-21T00:25:45;101442.53;;;15.23
53412;BMP280;39307;52.870;13.660;2023-05-21T00:28:12;101437.25;;;15.23
53412;BMP280;39307;52.870;13.660;2023-05-21T00:30:38;101436.63;;;15.21
53412;BMP280;39307;52.870;13.660;2023-05-21T00:33:04;101431.31;;;15.14
53412;BMP280;39307;52.870;13.660;2023-05-21T00:35:30;101429.31;;;15.16
53412;BMP280;39307;52.870;13.660;2023-05-21T00:37:57;101441.16;;;15.06
53412;BMP280;39307;52.870;13.660;2023-05-21T00:40:24;101433.47;;;15.04
53412;BMP280;39307;52.870;13.660;2023-05-21T00:42:50;101432.72;;;15.10
53412;BMP280;39307;52.870;13.660;2023-05-21T00:45:17;101442.84;;;15.07
53412;BMP280;39307;52.870;13.660;2023-05-21T00:47:44;101434.34;;;15.11
53412;BMP280;39307;52.870;13.660;2023-05-21T00:50:10;101432.97;;;14.95
53412;BMP280;39307;52.870;13.660;2023-05-21T00:52:37;101436.28;;;15.03
53412;BMP280;39307;52.870;13.660;2023-05-21T00:55:04;101448.53;;;14.83
53412;BMP280;39307;52.870;13.660;2023-05-21T00:57:30;101450.13;;;14.78
53412;BMP280;39307;52.870;13.660;2023-05-21T00:59:56;101446.75;;;14.63
53412;BMP280;39307;52.870;13.660;2023-05-21T01:02:22;101437.28;;;14.69
53412;BMP280;39307;52.870;13.660;2023-05-21T01:04:49;101444.59;;;14.73
53412;BMP280;39307;52.870;13.660;2023-05-21T01:07:16;101430.09;;;14.83
53412;BMP280;39307;52.870;13.660;2023-05-21T01:09:42;101434.06;;;14.73
53412;BMP280;39307;52.870;13.660;2023-05-21T01:12:09;101432.91;;;14.82
53412;BMP280;39307;52.870;13.660;2023-05-21T01:14:37;101437.25;;;14.62
53412;BMP280;39307;52.870;13.660;2023-05-21T01:17:04;101431.31;;;14.87
53412;BMP280;39307;52.870;13.660;2023-05-21T01:19:31;101428.13;;;14.92
53412;BMP280;39307;52.870;13.660;2023-05-21T01:22:06;101423.03;;;14.90
53412;BMP280;39307;52.870;13.660;2023-05-21T01:24:33;101419.19;;;14.93
53412;BMP280;39307;52.870;13.660;2023-05-21T01:27:00;101420.03;;;15.00
53412;BMP280;39307;52.870;13.660;2023-05-21T01:29:26;101415.13;;;14.90
53412;BMP280;39307;52.870;13.660;2023-05-21T01:35:07;101421.97;;;14.85
53412;BMP280;39307;52.870;13.660;2023-05-21T01:37:45;101412.22;;;14.85
53412;BMP280;39307;52.870;13.660;2023-05-21T01:42:53;101416.16;;;14.96
53412;BMP280;39307;52.870;13.660;2023-05-21T01:45:22;101411.44;;;14.85
53412;BMP280;39307;52.870;13.660;2023-05-21T01:47:50;101415.78;;;14.99
53412;BMP280;39307;52.870;13.660;2023-05-21T01:50:18;101407.28;;;15.03
53412;BMP280;39307;52.870;13.660;2023-05-21T01:52:53;101413.25;;;15.11
53412;BMP280;39307;52.870;13.660;2023-05-21T01:55:20;101407.03;;;14.92
53412;BMP280;39307;52.870;13.660;2023-05-21T01:57:46;101410.50;;;14.99
53412;BMP280;39307;52.870;13.660;2023-05-21T02:00:13;101415.94;;;14.91
53412;BMP280;39307;52.870;13.660;2023-05-21T02:02:39;101402.59;;;14.99
53412;BMP280;39307;52.870;13.660;2023-05-21T02:05:06;101407.91;;;15.05
53412;BMP280;39307;52.870;13.660;2023-05-21T02:07:32;101405.38;;;14.91
53412;BMP280;39307;52.870;13.660;2023-05-21T02:09:58;101407.66;;;15.00
53412;BMP280;39307;52.870;13.660;2023-05-21T02:12:24;101402.00;;;15.03
53412;BMP280;39307;52.870;13.660;2023-05-21T02:14:50;101402.59;;;14.99
53412;BMP280;39307;52.870;13.660;2023-05-21T02:17:17;101396.19;;;15.07
53412;BMP280;39307;52.870;13.660;2023-05-21T02:19:43;101395.50;;;14.99
53412;BMP280;39307;52.870;13.660;2023-05-21T02:22:10;101398.81;;;14.74
53412;BMP280;39307;52.870;13.660;2023-05-21T02:24:36;101404.50;;;14.77
53412;BMP280;39307;52.870;13.660;2023-05-21T02:27:02;101400.88;;;14.85
53412;BMP280;39307;52.870;13.660;2023-05-21T02:29:28;101403.31;;;14.80
53412;BMP280;39307;52.870;13.660;2023-05-21T02:31:55;101392.63;;;14.94
53412;BMP280;39307;52.870;13.660;2023-05-21T02:34:21;101396.47;;;14.92
53412;BMP280;39307;52.870;13.660;2023-05-21T02:36:47;101400.34;;;14.96
53412;BMP280;39307;52.870;13.660;2023-05-21T02:39:13;101402.72;;;14.84
53412;BMP280;39307;52.870;13.660;2023-05-21T02:41:40;101401.56;;;14.66
53412;BMP280;39307;52.870;13.660;2023-05-21T02:44:06;101410.34;;;14.73
53412;BMP280;39307;52.870;13.660;2023-05-21T02:46:32;101399.22;;;14.77
53412;BMP280;39307;52.870;13.660;2023-05-21T02:48:58;101406.41;;;14.63
53412;BMP280;39307;52.870;13.660;2023-05-21T02:51:25;101407.53;;;14.47
53412;BMP280;39307;52.870;13.660;2023-05-21T02:53:51;101404.88;;;14.47
53412;BMP280;39307;52.870;13.660;2023-05-21T02:56:17;101406.84;;;14.39
53412;BMP280;39307;52.870;13.660;2023-05-21T02:58:43;101408.97;;;14.50
53412;BMP280;39307;52.870;13.660;2023-05-21T03:01:10;101402.34;;;14.60
53412;BMP280;39307;52.870;13.660;2023-05-21T03:03:36;101402.91;;;14.29
53412;BMP280;39307;52.870;13.660;2023-05-21T03:06:02;101403.88;;;14.48
53412;BMP280;39307;52.870;13.660;2023-05-21T03:08:28;101396.41;;;14.52
53412;BMP280;39307;52.870;13.660;2023-05-21T03:10:55;101399.69;;;14.33
53412;BMP280;39307;52.870;13.660;2023-05-21T03:13:21;101388.25;;;14.20
53412;BMP280;39307;52.870;13.660;2023-05-21T03:15:47;101381.66;;;14.10
53412;BMP280;39307;52.870;13.660;2023-05-21T03:18:13;101382.44;;;14.31
53412;BMP280;39307;52.870;13.660;2023-05-21T03:20:39;101381.81;;;14.22
53412;BMP280;39307;52.870;13.660;2023-05-21T03:23:06;101378.28;;;14.15
53412;BMP280;39307;52.870;13.660;2023-05-21T03:25:32;101383.84;;;14.27
53412;BMP280;39307;52.870;13.660;2023-05-21T03:27:58;101387.81;;;14.37
53412;BMP280;39307;52.870;13.660;2023-05-21T03:30:24;101390.28;;;14.45
53412;BMP280;39307;52.870;13.660;2023-05-21T03:32:50;101385.03;;;14.51
53412;BMP280;39307;52.870;13.660;2023-05-21T03:35:16;101386.78;;;14.38
53412;BMP280;39307;52.870;13.660;2023-05-21T03:37:43;101388.03;;;14.42
53412;BMP280;39307;52.870;13.660;2023-05-21T03:40:10;101389.59;;;14.37
53412;BMP280;39307;52.870;13.660;2023-05-21T03:42:36;101383.50;;;14.36
53412;BMP280;39307;52.870;13.660;2023-05-21T03:45:03;101394.22;;;14.55
53412;BMP280;39307;52.870;13.660;2023-05-21T03:47:29;101389.84;;;14.42
53412;BMP280;39307;52.870;13.660;2023-05-21T03:49:55;101391.28;;;14.44
53412;BMP280;39307;52.870;13.660;2023-05-21T03:52:21;101387.88;;;14.50
53412;BMP280;39307;52.870;13.660;2023-05-21T03:54:48;101395.06;;;14.62
53412;BMP280;39307;52.870;13.660;2023-05-21T03:57:14;101393.72;;;14.45
53412;BMP280;39307;52.870;13.660;2023-05-21T03:59:40;101378.63;;;14.60
53412;BMP280;39307;52.870;13.660;2023-05-21T04:02:06;101390.38;;;14.58
53412;BMP280;39307;52.870;13.660;2023-05-21T04:04:32;101393.81;;;14.58
53412;BMP280;39307;52.870;13.660;2023-05-21T04:06:59;101390.69;;;14.75
53412;BMP280;39307;52.870;13.660;2023-05-21T04:09:25;101386.78;;;14.65
53412;BMP280;39307;52.870;13.660;2023-05-21T04:11:51;101397.16;;;14.73
53412;BMP280;39307;52.870;13.660;2023-05-21T04:14:17;101397.31;;;14.65
53412;BMP280;39307;52.870;13.660;2023-05-21T04:16:44;101399.41;;;14.49
53412;BMP280;39307;52.870;13.660;2023-05-21T04:19:10;101399.50;;;14.55
53412;BMP280;39307;52.870;13.660;2023-05-21T04:21:36;101401.53;;;14.60
53412;BMP280;39307;52.870;13.660;2023-05-21T04:24:02;101400.47;;;14.54
53412;BMP280;39307;52.870;13.660;2023-05-21T04:26:28;101386.03;;;14.77
53412;BMP280;39307;52.870;13.660;2023-05-21T04:28:55;101399.91;;;14.59
53412;BMP280;39307;52.870;13.660;2023-05-21T04:31:21;101399.41;;;14.76
53412;BMP280;39307;52.870;13.660;2023-05-21T04:33:47;101404.84;;;14.68
53412;BMP280;39307;52.870;13.660;2023-05-21T04:36:14;101407.44;;;14.62
53412;BMP280;39307;52.870;13.660;2023-05-21T04:38:41;101409.06;;;14.63
53412;BMP280;39307;52.870;13.660;2023-05-21T04:41:07;101406.81;;;14.60
53412;BMP280;39307;52.870;13.660;2023-05-21T04:43:33;101408.09;;;14.70
53412;BMP280;39307;52.870;13.660;2023-05-21T04:45:59;101408.03;;;14.64
53412;BMP280;39307;52.870;13.660;2023-05-21T04:48:26;101412.16;;;14.45
53412;BMP280;39307;52.870;13.660;2023-05-21T04:50:52;101395.53;;;14.72
53412;BMP280;39307;52.870;13.660;2023-05-21T04:53:19;101399.91;;;14.86
53412;BMP280;39307;52.870;13.660;2023-05-21T04:55:45;101408.81;;;14.58
53412;BMP280;39307;52.870;13.660;2023-05-21T04:58:11;101407.34;;;14.82
53412;BMP280;39307;52.870;13.660;2023-05-21T05:00:38;101400.41;;;14.75
53412;BMP280;39307;52.870;13.660;2023-05-21T05:03:04;101398.97;;;15.06
53412;BMP280;39307;52.870;13.660;2023-05-21T05:05:30;101396.81;;;15.16
53412;BMP280;39307;52.870;13.660;2023-05-21T05:07:56;101405.03;;;15.00
53412;BMP280;39307;52.870;13.660;2023-05-21T05:10:23;101397.03;;;15.14
53412;BMP280;39307;52.870;13.660;2023-05-21T05:12:49;101399.50;;;15.22
53412;BMP280;39307;52.870;13.660;2023-05-21T05:15:16;101395.53;;;15.52
53412;BMP280;39307;52.870;13.660;2023-05-21T05:17:42;101408.56;;;15.53
53412;BMP280;39307;52.870;13.660;2023-05-21T05:20:09;101396.34;;;15.46
53412;BMP280;39307;52.870;13.660;2023-05-21T05:22:36;101399.22;;;15.51
53412;BMP280;39307;52.870;13.660;2023-05-21T05:25:02;101400.06;;;15.70
53412;BMP280;39307;52.870;13.660;2023-05-21T05:27:28;101402.06;;;15.56
53412;BMP280;39307;52.870;13.660;2023-05-21T05:29:55;101401.22;;;15.49
53412;BMP280;39307;52.870;13.660;2023-05-21T05:32:21;101404.28;;;15.52
53412;BMP280;39307;52.870;13.660;2023-05-21T05:34:47;101395.75;;;15.44
53412;BMP280;39307;52.870;13.660;2023-05-21T05:37:13;101397.22;;;15.59
53412;BMP280;39307;52.870;13.660;2023-05-21T05:39:40;101397.03;;;15.73
53412;BMP280;39307;52.870;13.660;2023-05-21T05:42:06;101396.06;;;15.87
53412;BMP280;39307;52.870;13.660;2023-05-21T05:44:32;101394.44;;;15.86
53412;BMP280;39307;52.870;13.660;2023-05-21T05:46:58;101391.19;;;16.03
53412;BMP280;39307;52.870;13.660;2023-05-21T05:49:24;101398.16;;;16.17
53412;BMP280;39307;52.870;13.660;2023-05-21T05:51:51;101394.72;;;16.17
53412;BMP280;39307;52.870;13.660;2023-05-21T05:54:17;101394.69;;;16.10
53412;BMP280;39307;52.870;13.660;2023-05-21T05:56:43;101400.53;;;16.06
53412;BMP280;39307;52.870;13.660;2023-05-21T05:59:10;101397.13;;;16.24
53412;BMP280;39307;52.870;13.660;2023-05-21T06:01:36;101398.94;;;16.05
53412;BMP280;39307;52.870;13.660;2023-05-21T06:04:02;101388.19;;;16.19
53412;BMP280;39307;52.870;13.660;2023-05-21T06:06:28;101389.19;;;16.37
53412;BMP280;39307;52.870;13.660;2023-05-21T06:08:54;101392.06;;;16.42
53412;BMP280;39307;52.870;13.660;2023-05-21T06:11:21;101390.00;;;16.57
53412;BMP280;39307;52.870;13.660;2023-05-21T06:13:47;101386.34;;;16.58
53412;BMP280;39307;52.870;13.660;2023-05-21T06:16:13;101385.50;;;16.64
53412;BMP280;39307;52.870;13.660;2023-05-21T06:18:39;101386.50;;;16.75
53412;BMP280;39307;52.870;13.660;2023-05-21T06:21:06;101379.94;;;16.97
53412;BMP280;39307;52.870;13.660;2023-05-21T06:23:32;101386.28;;;16.96
53412;BMP280;39307;52.870;13.660;2023-05-21T06:25:58;101382.78;;;17.15
53412;BMP280;39307;52.870;13.660;2023-05-21T06:28:24;101373.75;;;17.35
53412;BMP280;39307;52.870;13.660;2023-05-21T06:30:50;101378.50;;;17.57
53412;BMP280;39307;52.870;13.660;2023-05-21T06:33:17;101375.63;;;17.65
53412;BMP280;39307;52.870;13.660;2023-05-21T06:35:43;101374.34;;;17.74
53412;BMP280;39307;52.870;13.660;2023-05-21T06:38:09;101371.50;;;17.99
53412;BMP280;39307;52.870;13.660;2023-05-21T06:40:35;101370.88;;;18.10
53412;BMP280;39307;52.870;13.660;2023-05-21T06:43:02;101377.06;;;18.22
53412;BMP280;39307;52.870;13.660;2023-05-21T06:45:28;101376.75;;;18.12
53412;BMP280;39307;52.870;13.660;2023-05-21T06:47:54;101371.50;;;18.06
53412;BMP280;39307;52.870;13.660;2023-05-21T06:50:20;101376.00;;;18.29
53412;BMP280;39307;52.870;13.660;2023-05-21T06:52:47;101372.00;;;18.45
53412;BMP280;39307;52.870;13.660;2023-05-21T06:55:13;101371.50;;;18.54
53412;BMP280;39307;52.870;13.660;2023-05-21T06:57:39;101385.50;;;18.37
53412;BMP280;39307;52.870;13.660;2023-05-21T07:00:06;101383.56;;;18.26
53412;BMP280;39307;52.870;13.660;2023-05-21T07:02:32;101376.09;;;18.41
53412;BMP280;39307;52.870;13.660;2023-05-21T07:04:58;101372.00;;;18.45
53412;BMP280;39307;52.870;13.660;2023-05-21T07:07:24;101380.91;;;18.50
53412;BMP280;39307;52.870;13.660;2023-05-21T07:09:51;101375.13;;;18.59
53412;BMP280;39307;52.870;13.660;2023-05-21T07:12:17;101375.16;;;18.77
53412;BMP280;39307;52.870;13.660;2023-05-21T07:14:43;101374.78;;;18.91
53412;BMP280;39307;52.870;13.660;2023-05-21T07:17:09;101378.41;;;18.97
53412;BMP280;39307;52.870;13.660;2023-05-21T07:19:35;101373.53;;;18.94
53412;BMP280;39307;52.870;13.660;2023-05-21T07:22:02;101373.03;;;19.03
53412;BMP280;39307;52.870;13.660;2023-05-21T07:24:28;101374.28;;;19.18
53412;BMP280;39307;52.870;13.660;2023-05-21T07:26:54;101375.38;;;19.29
53412;BMP280;39307;52.870;13.660;2023-05-21T07:29:20;101363.09;;;19.45
53412;BMP280;39307;52.870;13.660;2023-05-21T07:31:46;101363.50;;;19.60
53412;BMP280;39307;52.870;13.660;2023-05-21T07:34:13;101361.78;;;19.83
53412;BMP280;39307;52.870;13.660;2023-05-21T07:36:39;101363.25;;;19.79
53412;BMP280;39307;52.870;13.660;2023-05-21T07:39:05;101354.72;;;19.89
53412;BMP280;39307;52.870;13.660;2023-05-21T07:41:31;101357.75;;;20.03
53412;BMP280;39307;52.870;13.660;2023-05-21T07:43:58;101361.38;;;20.09
53412;BMP280;39307;52.870;13.660;2023-05-21T07:46:24;101352.78;;;19.96
53412;BMP280;39307;52.870;13.660;2023-05-21T07:48:50;101351.31;;;20.22
53412;BMP280;39307;52.870;13.660;2023-05-21T07:51:17;101355.06;;;20.44
53412;BMP280;39307;52.870;13.660;2023-05-21T07:53:43;101350.53;;;20.67
53412;BMP280;39307;52.870;13.660;2023-05-21T07:56:09;101348.91;;;20.88
53412;BMP280;39307;52.870;13.660;2023-05-21T07:58:37;101349.94;;;20.87
53412;BMP280;39307;52.870;13.660;2023-05-21T08:01:03;101352.47;;;20.94
53412;BMP280;39307;52.870;13.660;2023-05-21T08:03:29;101353.50;;;21.04
53412;BMP280;39307;52.870;13.660;2023-05-21T08:05:55;101349.59;;;20.95
53412;BMP280;39307;52.870;13.660;2023-05-21T08:08:22;101353.41;;;20.99
53412;BMP280;39307;52.870;13.660;2023-05-21T08:10:48;101356.94;;;21.16
53412;BMP280;39307;52.870;13.660;2023-05-21T08:13:15;101352.84;;;21.25
53412;BMP280;39307;52.870;13.660;2023-05-21T08:15:41;101359.38;;;21.17
53412;BMP280;39307;52.870;13.660;2023-05-21T08:18:09;101357.06;;;21.32
53412;BMP280;39307;52.870;13.660;2023-05-21T08:20:36;101347.78;;;21.35
53412;BMP280;39307;52.870;13.660;2023-05-21T08:23:03;101348.81;;;21.61
53412;BMP280;39307;52.870;13.660;2023-05-21T08:25:30;101344.97;;;21.85
53412;BMP280;39307;52.870;13.660;2023-05-21T08:27:56;101348.09;;;22.09
53412;BMP280;39307;52.870;13.660;2023-05-21T08:30:24;101347.28;;;22.41
53412;BMP280;39307;52.870;13.660;2023-05-21T08:32:51;101342.59;;;22.86
53412;BMP280;39307;52.870;13.660;2023-05-21T08:35:17;101348.13;;;23.00
53412;BMP280;39307;52.870;13.660;2023-05-21T08:37:45;101339.44;;;23.52
53412;BMP280;39307;52.870;13.660;2023-05-21T08:40:12;101338.81;;;23.97
53412;BMP280;39307;52.870;13.660;2023-05-21T08:42:39;101335.56;;;24.21
53412;BMP280;39307;52.870;13.660;2023-05-21T08:45:10;101342.41;;;24.43
53412;BMP280;39307;52.870;13.660;2023-05-21T08:47:36;101332.25;;;24.14
53412;BMP280;39307;52.870;13.660;2023-05-21T08:50:08;101339.28;;;24.56
53412;BMP280;39307;52.870;13.660;2023-05-21T08:52:35;101336.53;;;24.92
53412;BMP280;39307;52.870;13.660;2023-05-21T08:55:03;101334.72;;;24.97
53412;BMP280;39307;52.870;13.660;2023-05-21T08:57:30;101334.28;;;25.25
53412;BMP280;39307;52.870;13.660;2023-05-21T08:59:57;101325.53;;;25.49
53412;BMP280;39307;52.870;13.660;2023-05-21T09:02:23;101322.88;;;25.64
53412;BMP280;39307;52.870;13.660;2023-05-21T09:04:53;101328.25;;;25.64
53412;BMP280;39307;52.870;13.660;2023-05-21T09:07:21;101327.75;;;25.86
53412;BMP280;39307;52.870;13.660;2023-05-21T09:10:07;101324.78;;;25.98
53412;BMP280;39307;52.870;13.660;2023-05-21T09:12:37;101333.34;;;25.65
53412;BMP280;39307;52.870;13.660;2023-05-21T09:15:04;101326.38;;;25.89
53412;BMP280;39307;52.870;13.660;2023-05-21T09:17:36;101321.28;;;26.32
53412;BMP280;39307;52.870;13.660;2023-05-21T09:20:12;101311.84;;;26.73
53412;BMP280;39307;52.870;13.660;2023-05-21T09:22:47;101328.22;;;26.62
53412;BMP280;39307;52.870;13.660;2023-05-21T09:25:21;101310.75;;;26.65
53412;BMP280;39307;52.870;13.660;2023-05-21T09:27:48;101309.53;;;27.10
53412;BMP280;39307;52.870;13.660;2023-05-21T09:30:15;101306.38;;;27.51
53412;BMP280;39307;52.870;13.660;2023-05-21T09:32:43;101313.19;;;27.28
53412;BMP280;39307;52.870;13.660;2023-05-21T09:35:12;101299.75;;;27.38
53412;BMP280;39307;52.870;13.660;2023-05-21T09:37:48;101297.38;;;27.70
53412;BMP280;39307;52.870;13.660;2023-05-21T09:40:16;101294.19;;;27.63
53412;BMP280;39307;52.870;13.660;2023-05-21T09:42:47;101297.72;;;27.58
53412;BMP280;39307;52.870;13.660;2023-05-21T09:45:21;101300.50;;;27.44
53412;BMP280;39307;52.870;13.660;2023-05-21T09:47:49;101289.00;;;27.33
53412;BMP280;39307;52.870;13.660;2023-05-21T09:50:20;101300.78;;;27.47
53412;BMP280;39307;52.870;13.660;2023-05-21T09:52:47;101286.25;;;27.43
53412;BMP280;39307;52.870;13.660;2023-05-21T09:55:15;101288.25;;;27.66
53412;BMP280;39307;52.870;13.660;2023-05-21T09:57:45;101297.13;;;27.66
53412;BMP280;39307;52.870;13.660;2023-05-21T10:00:20;101287.53;;;27.88
53412;BMP280;39307;52.870;13.660;2023-05-21T10:02:48;101282.34;;;27.64
53412;BMP280;39307;52.870;13.660;2023-05-21T10:05:18;101285.50;;;27.71
53412;BMP280;39307;52.870;13.660;2023-05-21T10:07:50;101280.94;;;28.04
53412;BMP280;39307;52.870;13.660;2023-05-21T10:10:19;101295.34;;;27.85
53412;BMP280;39307;52.870;13.660;2023-05-21T10:12:59;101274.13;;;27.51
53412;BMP280;39307;52.870;13.660;2023-05-21T10:15:27;101277.34;;;28.13
53412;BMP280;39307;52.870;13.660;2023-05-21T10:17:55;101269.22;;;28.23
53412;BMP280;39307;52.870;13.660;2023-05-21T10:20:22;101277.22;;;28.28
53412;BMP280;39307;52.870;13.660;2023-05-21T10:22:49;101276.88;;;27.74
53412;BMP280;39307;52.870;13.660;2023-05-21T10:25:16;101270.00;;;27.58
53412;BMP280;39307;52.870;13.660;2023-05-21T10:27:44;101262.94;;;27.34
53412;BMP280;39307;52.870;13.660;2023-05-21T10:30:11;101271.06;;;27.62
53412;BMP280;39307;52.870;13.660;2023-05-21T10:32:39;101266.66;;;27.76
53412;BMP280;39307;52.870;13.660;2023-05-21T10:35:07;101259.94;;;27.73
53412;BMP280;39307;52.870;13.660;2023-05-21T10:37:36;101266.56;;;27.85
53412;BMP280;39307;52.870;13.660;2023-05-21T10:40:02;101251.72;;;28.44
53412;BMP280;39307;52.870;13.660;2023-05-21T10:48:14;101235.53;;;29.31
53412;BMP280;39307;52.870;13.660;2023-05-21T10:51:09;101234.56;;;29.04
53412;BMP280;39307;52.870;13.660;2023-05-21T10:59:14;101231.50;;;29.97
53412;BMP280;39307;52.870;13.660;2023-05-21T11:01:43;101237.84;;;30.19
53412;BMP280;39307;52.870;13.660;2023-05-21T11:04:10;101230.66;;;30.28
53412;BMP280;39307;52.870;13.660;2023-05-21T11:06:38;101225.06;;;30.64
53412;BMP280;39307;52.870;13.660;2023-05-21T11:09:12;101225.94;;;30.86
53412;BMP280;39307;52.870;13.660;2023-05-21T11:11:45;101215.41;;;30.98
53412;BMP280;39307;52.870;13.660;2023-05-21T11:16:54;101224.72;;;30.13
53412;BMP280;39307;52.870;13.660;2023-05-21T11:19:21;101217.75;;;29.31
53412;BMP280;39307;52.870;13.660;2023-05-21T11:21:57;101223.19;;;29.26
53412;BMP280;39307;52.870;13.660;2023-05-21T11:24:24;101214.22;;;29.48
53412;BMP280;39307;52.870;13.660;2023-05-21T11:29:17;101221.69;;;29.88
53412;BMP280;39307;52.870;13.660;2023-05-21T11:31:57;101217.19;;;29.96
53412;BMP280;39307;52.870;13.660;2023-05-21T11:34:24;101214.31;;;30.06
53412;BMP280;39307;52.870;13.660;2023-05-21T11:39:46;101214.81;;;30.08
53412;BMP280;39307;52.870;13.660;2023-05-21T11:42:26;101211.41;;;30.03
53412;BMP280;39307;52.870;13.660;2023-05-21T11:44:55;101205.63;;;30.62
53412;BMP280;39307;52.870;13.660;2023-05-21T11:47:21;101208.66;;;30.34
53412;BMP280;39307;52.870;13.660;2023-05-21T11:49:48;101206.19;;;29.93
53412;BMP280;39307;52.870;13.660;2023-05-21T11:52:14;101208.78;;;29.98
53412;BMP280;39307;52.870;13.660;2023-05-21T11:54:44;101206.16;;;30.24
53412;BMP280;39307;52.870;13.660;2023-05-21T11:57:11;101205.34;;;30.64
53412;BMP280;39307;52.870;13.660;2023-05-21T11:59:37;101199.75;;;30.87
53412;BMP280;39307;52.870;13.660;2023-05-21T12:02:04;101192.13;;;31.10
53412;BMP280;39307;52.870;13.660;2023-05-21T12:04:31;101199.63;;;30.52
53412;BMP280;39307;52.870;13.660;2023-05-21T12:06:57;101206.97;;;30.78
53412;BMP280;39307;52.870;13.660;2023-05-21T12:09:24;101192.78;;;31.29
53412;BMP280;39307;52.870;13.660;2023-05-21T12:11:50;101192.41;;;31.36
53412;BMP280;39307;52.870;13.660;2023-05-21T12:14:17;101193.78;;;30.98
53412;BMP280;39307;52.870;13.660;2023-05-21T12:16:43;101190.13;;;31.16
53412;BMP280;39307;52.870;13.660;2023-05-21T12:19:09;101185.25;;;31.39
53412;BMP280;39307;52.870;13.660;2023-05-21T12:21:35;101178.59;;;31.67
53412;BMP280;39307;52.870;13.660;2023-05-21T12:24:03;101193.13;;;31.28
53412;BMP280;39307;52.870;13.660;2023-05-21T12:26:29;101178.41;;;31.64
53412;BMP280;39307;52.870;13.660;2023-05-21T12:28:56;101180.97;;;31.90
53412;BMP280;39307;52.870;13.660;2023-05-21T12:31:22;101188.88;;;31.78
53412;BMP280;39307;52.870;13.660;2023-05-21T12:33:49;101191.38;;;31.53
53412;BMP280;39307;52.870;13.660;2023-05-21T12:36:29;101185.69;;;31.33
53412;BMP280;39307;52.870;13.660;2023-05-21T12:38:57;101176.22;;;31.95
53412;BMP280;39307;52.870;13.660;2023-05-21T12:41:23;101179.81;;;31.83
53412;BMP280;39307;52.870;13.660;2023-05-21T12:43:50;101170.09;;;32.12
53412;BMP280;39307;52.870;13.660;2023-05-21T12:46:16;101177.34;;;31.08
53412;BMP280;39307;52.870;13.660;2023-05-21T12:48:51;101180.38;;;31.50
53412;BMP280;39307;52.870;13.660;2023-05-21T12:51:19;101183.16;;;31.37
53412;BMP280;39307;52.870;13.660;2023-05-21T12:53:46;101172.41;;;31.23
53412;BMP280;39307;52.870;13.660;2023-05-21T12:56:13;101167.22;;;30.78
53412;BMP280;39307;52.870;13.660;2023-05-21T12:58:40;101185.94;;;30.75
53412;BMP280;39307;52.870;13.660;2023-05-21T13:01:08;101180.75;;;31.00
53412;BMP280;39307;52.870;13.660;2023-05-21T13:03:35;101163.69;;;31.13
53412;BMP280;39307;52.870;13.660;2023-05-21T13:06:02;101168.75;;;31.28
53412;BMP280;39307;52.870;13.660;2023-05-21T13:08:31;101163.72;;;31.35
53412;BMP280;39307;52.870;13.660;2023-05-21T13:10:57;101153.63;;;31.48
53412;BMP280;39307;52.870;13.660;2023-05-21T13:13:24;101157.41;;;31.39
53412;BMP280;39307;52.870;13.660;2023-05-21T13:15:52;101170.13;;;30.55
53412;BMP280;39307;52.870;13.660;2023-05-21T13:18:19;101173.72;;;30.38
53412;BMP280;39307;52.870;13.660;2023-05-21T13:20:47;101178.59;;;29.96
53412;BMP280;39307;52.870;13.660;2023-05-21T13:23:17;101179.63;;;29.68
53412;BMP280;39307;52.870;13.660;2023-05-21T13:25:43;101169.78;;;29.90
53412;BMP280;39307;52.870;13.660;2023-05-21T13:28:10;101169.59;;;29.87
53412;BMP280;39307;52.870;13.660;2023-05-21T13:30:39;101167.16;;;29.72
53412;BMP280;39307;52.870;13.660;2023-05-21T13:33:05;101179.03;;;29.71
53412;BMP280;39307;52.870;13.660;2023-05-21T13:35:32;101170.59;;;29.91
53412;BMP280;39307;52.870;13.660;2023-05-21T13:37:58;101157.38;;;29.89
53412;BMP280;39307;52.870;13.660;2023-05-21T13:40:24;101160.94;;;29.40
53412;BMP280;39307;52.870;13.660;2023-05-21T13:42:50;101161.41;;;29.29
53412;BMP280;39307;52.870;13.660;2023-05-21T13:45:18;101159.34;;;29.08
53412;BMP280;39307;52.870;13.660;2023-05-21T13:47:45;101162.44;;;28.97
53412;BMP280;39307;52.870;13.660;2023-05-21T13:50:13;101154.94;;;28.75
53412;BMP280;39307;52.870;13.660;2023-05-21T13:52:39;101144.56;;;28.82
53412;BMP280;39307;52.870;13.660;2023-05-21T13:55:06;101153.41;;;29.06
53412;BMP280;39307;52.870;13.660;2023-05-21T13:57:33;101153.19;;;28.84
53412;BMP280;39307;52.870;13.660;2023-05-21T13:59:59;101143.84;;;28.77
53412;BMP280;39307;52.870;13.660;2023-05-21T14:02:25;101151.44;;;28.93
53412;BMP280;39307;52.870;13.660;2023-05-21T14:04:52;101155.66;;;28.81
53412;BMP280;39307;52.870;13.660;2023-05-21T14:07:18;101148.16;;;28.78
53412;BMP280;39307;52.870;13.660;2023-05-21T14:09:45;101151.84;;;29.05